Cane Beds, Arizona
Current Conditions -  °F | °C
As of 8:15 PM on Sunday 23 Nov 2014 (Local Time) from KAZC Reporting Station
Clear Clear  
Wind Chill: 32°   Ceiling: Unl
Heat Index: 36°   Visibility: 10mi
Dew Point:   Wind: 6mph
Humidity: 30%   Direction: 80°E
Pressure: 30.26"   Gusts: NA
Location:  36.9484°N, 112.529°W
Report Text: KAZC 240315Z AUTO 08005KT 10SM CLR 02/M14 A3026 RMK AO2 T00241137
Loading
Personal Weather Stations






























Interactive Weather Map New forecast layout! Learn more

10-Day Weather Forecast

Advertisements
Track Severe Weather on mobile